createdAt,value
2023-11-23T00:02:57.948Z,25.00
2023-11-23T00:06:00.627Z,23.85
2023-11-23T00:09:04.004Z,26.40
2023-11-23T00:12:07.230Z,23.77
2023-11-23T00:15:11.016Z,24.58
2023-11-23T00:19:02.053Z,24.15
2023-11-23T00:22:05.086Z,24.58
2023-11-23T00:25:13.599Z,26.17
2023-11-23T00:28:17.364Z,24.27
2023-11-23T00:31:19.937Z,24.38
2023-11-23T00:34:23.856Z,21.15
2023-11-23T00:37:30.192Z,23.33
2023-11-23T00:40:32.856Z,26.27
2023-11-23T00:43:38.178Z,25.05
2023-11-23T00:46:40.779Z,27.27
2023-11-23T00:49:43.123Z,23.45
2023-11-23T00:52:45.554Z,27.33
2023-11-23T00:55:48.358Z,25.47
2023-11-23T00:58:53.383Z,28.42
2023-11-23T01:01:56.234Z,24.52
2023-11-23T01:04:59.220Z,26.85
2023-11-23T01:08:02.092Z,22.80
2023-11-23T01:11:04.912Z,23.00
2023-11-23T01:14:09.655Z,21.90
2023-11-23T01:17:12.202Z,25.00
2023-11-23T01:20:15.473Z,23.42
2023-11-23T01:23:18.573Z,23.88
2023-11-23T01:26:21.451Z,22.87
2023-11-23T01:29:25.352Z,19.55
2023-11-23T01:32:31.383Z,26.25
2023-11-23T01:35:34.157Z,21.73
2023-11-23T01:38:37.645Z,23.90
2023-11-23T01:41:40.496Z,21.57
2023-11-23T01:44:43.450Z,20.55
2023-11-23T01:47:48.227Z,22.13
2023-11-23T01:50:51.912Z,23.80
2023-11-23T01:53:55.688Z,25.23
2023-11-23T01:57:00.322Z,23.47
2023-11-23T02:00:04.168Z,25.50
2023-11-23T02:03:09.979Z,26.65
2023-11-23T02:06:14.361Z,23.95
2023-11-23T02:09:18.579Z,24.70
2023-11-23T02:12:23.446Z,24.27
2023-11-23T02:15:28.398Z,22.20
2023-11-23T02:18:42.707Z,20.85
2023-11-23T02:21:48.018Z,22.83
2023-11-23T02:24:52.003Z,20.48
2023-11-23T02:27:56.000Z,17.67
2023-11-23T02:30:59.151Z,18.52
2023-11-23T02:34:05.233Z,21.77
2023-11-23T02:37:10.900Z,17.83
2023-11-23T02:40:13.534Z,17.92
2023-11-23T02:43:17.416Z,17.80
2023-11-23T02:46:23.203Z,17.50
2023-11-23T02:49:26.389Z,16.15
2023-11-23T02:52:29.417Z,17.67
2023-11-23T02:55:32.492Z,17.55
2023-11-23T02:58:35.408Z,18.57
2023-11-23T03:01:38.128Z,18.45
2023-11-23T03:04:40.622Z,17.52
2023-11-23T03:07:43.351Z,18.20
2023-11-23T03:10:46.019Z,19.92
2023-11-23T03:13:49.610Z,15.53
2023-11-23T03:16:54.025Z,14.57
2023-11-23T03:19:56.780Z,17.50
2023-11-23T03:23:00.388Z,15.27
2023-11-23T03:26:06.971Z,17.40
2023-11-23T03:29:09.882Z,14.87
2023-11-23T03:32:12.003Z,15.07
2023-11-23T03:35:14.604Z,17.98
2023-11-23T03:38:17.632Z,17.55
2023-11-23T03:41:19.891Z,18.27
2023-11-23T03:44:22.817Z,15.97
2023-11-23T03:47:25.609Z,14.60
2023-11-23T03:50:27.993Z,17.42
2023-11-23T03:53:30.715Z,19.23
2023-11-23T03:56:33.932Z,18.23
2023-11-23T03:59:36.492Z,13.80
2023-11-23T04:02:39.953Z,18.17
2023-11-23T04:05:42.910Z,20.40
2023-11-23T04:08:49.458Z,15.98
2023-11-23T04:12:12.892Z,18.55
2023-11-23T04:15:16.167Z,20.00
2023-11-23T04:18:23.645Z,17.75
2023-11-23T04:21:37.435Z,23.00
2023-11-23T04:24:45.326Z,20.85
2023-11-23T04:28:00.567Z,18.38
2023-11-23T04:31:06.814Z,16.50
2023-11-23T04:34:09.974Z,18.17
2023-11-23T04:37:16.543Z,18.02
2023-11-23T04:40:25.151Z,16.95
2023-11-23T04:43:34.985Z,15.10
2023-11-23T04:46:39.640Z,15.03
2023-11-23T04:49:43.750Z,16.80
2023-11-23T04:52:56.794Z,14.45
2023-11-23T04:56:08.271Z,18.48
2023-11-23T04:59:11.950Z,15.30
2023-11-23T05:02:18.094Z,14.27
2023-11-23T05:05:21.525Z,13.13
2023-11-23T05:08:24.096Z,16.88
2023-11-23T05:11:26.456Z,15.57
2023-11-23T05:14:29.370Z,17.35
2023-11-23T05:17:34.449Z,14.37
2023-11-23T05:20:36.634Z,11.63
2023-11-23T05:23:38.924Z,12.60
2023-11-23T05:27:08.534Z,18.75
2023-11-23T05:30:18.161Z,13.60
2023-11-23T05:33:26.093Z,12.60
2023-11-23T05:36:34.543Z,20.83
2023-11-23T05:39:38.861Z,14.43
2023-11-23T05:42:54.311Z,14.25
2023-11-23T05:46:07.554Z,14.43
2023-11-23T05:49:16.277Z,15.53
2023-11-23T05:52:19.018Z,17.30
2023-11-23T05:55:22.299Z,24.33
2023-11-23T05:58:31.128Z,23.15
2023-11-23T06:01:36.554Z,20.13
2023-11-23T06:04:49.230Z,21.63
2023-11-23T06:07:52.939Z,23.95
2023-11-23T06:10:55.813Z,30.20
2023-11-23T06:13:59.601Z,21.10
2023-11-23T06:17:17.460Z,20.40
2023-11-23T06:20:24.681Z,22.57
2023-11-23T06:23:27.427Z,22.70
2023-11-23T06:26:43.579Z,28.35
2023-11-23T06:29:50.216Z,25.75
2023-11-23T06:32:55.569Z,25.05
2023-11-23T06:36:02.174Z,27.43
2023-11-23T06:39:17.460Z,28.02
2023-11-23T06:42:49.052Z,28.02
2023-11-23T06:45:55.742Z,26.85
2023-11-23T06:49:02.662Z,28.13
2023-11-23T06:52:06.360Z,24.10
2023-11-23T06:55:24.572Z,28.77
2023-11-23T06:58:34.427Z,26.63
2023-11-23T07:02:32.496Z,25.80
2023-11-23T07:06:17.728Z,26.58
2023-11-23T07:09:26.408Z,29.73
2023-11-23T07:13:01.579Z,24.30
2023-11-23T07:20:46.807Z,25.10
2023-11-23T07:23:50.932Z,22.83
2023-11-23T07:26:57.475Z,24.10
2023-11-23T07:30:08.427Z,29.15
2023-11-23T07:33:21.194Z,25.75
2023-11-23T07:36:29.658Z,26.60
2023-11-23T07:39:43.487Z,27.65
2023-11-23T07:42:47.918Z,25.43
2023-11-23T07:49:38.096Z,27.73
2023-11-23T07:53:07.153Z,24.98
2023-11-23T07:56:12.086Z,27.42
2023-11-23T07:59:22.832Z,27.40
2023-11-23T08:02:33.982Z,22.30
2023-11-23T08:09:20.633Z,29.15
2023-11-23T08:20:18.021Z,25.77
2023-11-23T08:23:21.625Z,25.80
2023-11-23T08:26:39.239Z,25.40
2023-11-23T08:29:48.336Z,29.60
2023-11-23T08:33:17.441Z,30.27
2023-11-23T08:36:42.272Z,25.23
2023-11-23T08:39:55.679Z,25.25
2023-11-23T08:43:17.199Z,34.67
2023-11-23T08:46:24.198Z,25.92
2023-11-23T08:49:36.236Z,28.30
2023-11-23T08:53:59.791Z,25.55
2023-11-23T08:57:16.967Z,28.08
2023-11-23T09:00:46.985Z,29.27
2023-11-23T09:11:51.055Z,23.40
2023-11-23T09:15:23.284Z,23.63
2023-11-23T09:18:35.728Z,19.63
2023-11-23T09:21:41.169Z,24.83
2023-11-23T09:31:51.179Z,20.40
2023-11-23T09:39:11.123Z,22.30
2023-11-23T09:42:22.363Z,19.00
2023-11-23T09:46:59.037Z,22.15
2023-11-23T09:58:44.805Z,23.70
2023-11-23T10:02:37.571Z,22.07
2023-11-23T10:23:37.912Z,20.70
2023-11-23T10:27:04.434Z,25.67
2023-11-23T10:30:54.001Z,22.92
2023-11-23T10:37:57.696Z,25.75
2023-11-23T10:41:26.271Z,24.10
2023-11-23T10:45:36.460Z,20.85
2023-11-23T10:49:09.831Z,21.95
2023-11-23T10:52:27.762Z,28.63
2023-11-23T10:56:14.901Z,22.90
2023-11-23T11:05:57.302Z,25.83
2023-11-23T11:13:40.939Z,20.73
2023-11-23T11:17:04.643Z,21.20
2023-11-23T11:20:43.874Z,23.37
2023-11-23T11:24:27.543Z,20.33
2023-11-23T11:27:40.636Z,22.17
2023-11-23T11:30:45.506Z,20.80
2023-11-23T11:33:56.050Z,17.17
2023-11-23T11:37:20.976Z,19.10
2023-11-23T11:40:38.227Z,20.80
2023-11-23T11:43:48.916Z,20.75
2023-11-23T11:59:00.562Z,20.55
2023-11-23T12:02:09.534Z,19.30
2023-11-23T12:05:20.005Z,18.35
2023-11-23T12:08:34.897Z,19.88
2023-11-23T12:12:17.684Z,17.03
2023-11-23T12:29:13.399Z,19.05
2023-11-23T12:32:19.629Z,19.37
2023-11-23T12:35:22.207Z,17.77
2023-11-23T12:38:25.801Z,19.15
2023-11-23T12:41:42.768Z,19.40
2023-11-23T12:45:00.699Z,17.02
2023-11-23T12:48:06.688Z,18.93
2023-11-23T12:51:12.084Z,18.63
2023-11-23T12:54:22.087Z,20.75
2023-11-23T12:57:39.280Z,17.08
2023-11-23T13:00:44.578Z,18.45
2023-11-23T13:03:58.632Z,20.87
2023-11-23T13:07:01.939Z,18.42
2023-11-23T13:10:07.168Z,17.42
2023-11-23T13:13:10.189Z,17.05
2023-11-23T13:16:20.561Z,15.73
2023-11-23T13:19:37.068Z,15.53
2023-11-23T13:22:47.813Z,16.77
2023-11-23T13:25:52.441Z,15.98
2023-11-23T13:28:58.724Z,13.18
2023-11-23T13:32:04.089Z,13.35
2023-11-23T13:35:08.788Z,14.80
2023-11-23T13:38:12.202Z,16.90
2023-11-23T13:41:16.491Z,19.85
2023-11-23T13:44:20.057Z,21.30
2023-11-23T13:47:22.301Z,21.90
2023-11-23T13:50:26.458Z,22.67
2023-11-23T13:53:32.349Z,20.02
2023-11-23T13:56:34.996Z,20.88
2023-11-23T13:59:38.647Z,26.13
2023-11-23T14:02:41.422Z,24.40
2023-11-23T14:05:47.408Z,23.83
2023-11-23T14:08:50.454Z,22.20
2023-11-23T14:11:55.943Z,22.58
2023-11-23T14:15:06.085Z,24.77
2023-11-23T14:18:12.056Z,24.85
2023-11-23T14:21:15.385Z,25.90
2023-11-23T14:24:21.038Z,18.20
2023-11-23T14:27:27.979Z,24.98
2023-11-23T14:30:33.128Z,23.98
2023-11-23T14:36:37.854Z,25.67
2023-11-23T14:39:41.276Z,26.42
2023-11-23T14:42:55.910Z,25.73
2023-11-23T14:46:09.633Z,26.90
2023-11-23T14:49:12.736Z,22.15
2023-11-23T14:52:16.721Z,24.70
2023-11-23T14:55:19.319Z,22.75
2023-11-23T14:58:22.588Z,21.15
2023-11-23T15:01:28.057Z,21.85
2023-11-23T15:04:32.787Z,24.52
2023-11-23T15:07:36.314Z,26.20
2023-11-23T15:10:39.646Z,27.65
2023-11-23T15:13:42.614Z,28.58
2023-11-23T15:16:47.520Z,22.23
2023-11-23T15:19:49.836Z,28.45
2023-11-23T15:22:52.267Z,24.77
2023-11-23T15:25:55.834Z,25.08
2023-11-23T15:29:01.011Z,26.83
2023-11-23T15:32:04.524Z,24.95
2023-11-23T15:35:17.894Z,29.08
2023-11-23T15:38:23.837Z,22.90
2023-11-23T15:41:26.310Z,26.23
2023-11-23T15:44:30.004Z,27.40
2023-11-23T15:47:32.123Z,25.27
2023-11-23T15:50:34.730Z,22.50
2023-11-23T15:53:38.195Z,27.97
2023-11-23T15:56:41.132Z,26.52
2023-11-23T15:59:43.226Z,24.27
2023-11-23T16:02:46.968Z,24.45
2023-11-23T16:05:49.925Z,23.65
2023-11-23T16:08:57.032Z,27.30
2023-11-23T16:12:04.499Z,23.38
2023-11-23T16:15:08.334Z,26.42
2023-11-23T16:18:11.822Z,28.40
2023-11-23T16:21:18.335Z,26.15
2023-11-23T16:24:22.003Z,24.93
2023-11-23T16:27:25.872Z,26.40
2023-11-23T16:30:28.729Z,29.85
2023-11-23T16:33:34.151Z,23.92
2023-11-23T16:36:39.998Z,23.45
2023-11-23T16:39:43.317Z,25.53
2023-11-23T16:42:48.207Z,25.38
2023-11-23T16:45:51.769Z,25.35
2023-11-23T16:48:56.335Z,28.83
2023-11-23T16:51:59.625Z,23.50
2023-11-23T16:55:04.239Z,22.10
2023-11-23T16:58:07.246Z,27.33
2023-11-23T17:01:09.751Z,28.08
2023-11-23T17:04:13.269Z,24.17
2023-11-23T17:07:16.054Z,28.08
2023-11-23T17:10:21.911Z,24.90
2023-11-23T17:13:25.423Z,28.10
2023-11-23T17:16:30.559Z,25.67
2023-11-23T17:19:39.644Z,26.13
2023-11-23T17:22:44.845Z,26.85
2023-11-23T17:25:49.677Z,26.97
2023-11-23T17:28:55.757Z,26.95
2023-11-23T17:31:59.333Z,29.63
2023-11-23T17:35:03.940Z,24.00
2023-11-23T17:38:09.064Z,25.45
2023-11-23T17:41:15.101Z,26.03
2023-11-23T17:44:19.262Z,27.55
2023-11-23T17:47:27.243Z,30.50
2023-11-23T17:50:31.114Z,28.35
2023-11-23T17:53:38.658Z,28.13
2023-11-23T17:56:42.645Z,26.10
2023-11-23T17:59:49.862Z,23.83
2023-11-23T18:02:54.603Z,28.05
2023-11-23T18:05:59.578Z,25.02
2023-11-23T18:09:06.846Z,24.67
2023-11-23T18:12:11.272Z,25.53
2023-11-23T18:15:15.818Z,25.73
2023-11-23T18:18:24.066Z,26.25
2023-11-23T18:21:29.101Z,26.20
2023-11-23T18:24:32.712Z,26.92
2023-11-23T18:27:35.813Z,28.93
2023-11-23T18:30:39.772Z,25.63
2023-11-23T18:33:45.067Z,25.95
2023-11-23T18:36:48.400Z,25.30
2023-11-23T18:39:52.024Z,28.45
2023-11-23T18:42:55.281Z,24.63
2023-11-23T18:45:58.811Z,24.17
2023-11-23T18:49:04.042Z,25.25
2023-11-23T18:52:10.200Z,30.65
2023-11-23T18:55:20.031Z,27.00
2023-11-23T18:58:22.682Z,31.07
2023-11-23T19:01:26.052Z,27.10
2023-11-23T19:04:28.963Z,28.55
2023-11-23T19:07:38.043Z,30.63
2023-11-23T19:10:43.252Z,30.35
2023-11-23T19:13:47.661Z,30.97
2023-11-23T19:16:51.060Z,30.95
2023-11-23T19:19:57.020Z,25.08
2023-11-23T19:23:03.677Z,29.10
2023-11-23T19:26:08.142Z,27.58
2023-11-23T19:29:12.545Z,27.23
2023-11-23T19:32:27.426Z,29.25
2023-11-23T19:35:31.569Z,28.20
2023-11-23T19:38:35.998Z,28.65
2023-11-23T19:41:43.158Z,29.38
2023-11-23T19:44:51.651Z,29.33
2023-11-23T19:47:56.056Z,29.95
2023-11-23T19:50:59.465Z,30.88
2023-11-23T19:54:07.825Z,31.73
2023-11-23T19:57:11.683Z,28.08
2023-11-23T20:00:16.514Z,28.97
2023-11-23T20:03:21.156Z,35.88
2023-11-23T20:06:27.519Z,28.35
2023-11-23T20:09:32.394Z,28.17
2023-11-23T20:12:35.947Z,30.60
2023-11-23T20:15:38.786Z,29.07
2023-11-23T20:18:45.139Z,27.30
2023-11-23T20:21:48.910Z,30.90
2023-11-23T20:24:52.535Z,25.63
2023-11-23T20:27:56.264Z,28.67
2023-11-23T20:31:01.962Z,28.33
2023-11-23T20:34:05.839Z,31.52
2023-11-23T20:37:10.261Z,25.98
2023-11-23T20:40:13.189Z,28.08
2023-11-23T20:43:16.638Z,27.88
2023-11-23T20:46:19.382Z,26.83
2023-11-23T20:49:22.957Z,30.85
2023-11-23T20:52:27.937Z,26.67
2023-11-23T20:55:32.621Z,29.63
2023-11-23T20:58:36.079Z,27.48
2023-11-23T21:01:39.931Z,31.17
2023-11-23T21:04:46.098Z,30.92
2023-11-23T21:07:49.588Z,23.15
2023-11-23T21:10:53.988Z,25.85
2023-11-23T21:13:57.728Z,21.80
2023-11-23T21:17:01.844Z,23.93
2023-11-23T21:20:11.202Z,25.75
2023-11-23T21:23:14.492Z,25.23
2023-11-23T21:26:17.264Z,24.98
2023-11-23T21:29:20.144Z,25.02
2023-11-23T21:32:25.448Z,29.33
2023-11-23T21:35:33.665Z,26.15
2023-11-23T21:38:38.586Z,24.80
2023-11-23T21:41:41.267Z,25.85
2023-11-23T21:44:44.114Z,23.30
2023-11-23T21:47:48.657Z,23.97
2023-11-23T21:50:54.651Z,24.70
2023-11-23T21:53:58.194Z,21.70
2023-11-23T21:57:00.790Z,26.42
2023-11-23T22:00:04.379Z,23.45
2023-11-23T22:03:06.572Z,23.53
2023-11-23T22:06:10.377Z,21.70
2023-11-23T22:09:12.581Z,26.30
2023-11-23T22:12:15.082Z,20.17
2023-11-23T22:15:17.946Z,18.60
2023-11-23T22:18:21.131Z,20.00
2023-11-23T22:21:25.845Z,19.02
2023-11-23T22:24:28.804Z,21.63
2023-11-23T22:27:32.731Z,20.42
2023-11-23T22:30:39.090Z,20.33
2023-11-23T22:33:43.116Z,23.70
2023-11-23T22:36:46.694Z,23.98
2023-11-23T22:39:49.489Z,22.48
2023-11-23T22:42:52.411Z,19.38
2023-11-23T22:45:54.969Z,21.20
2023-11-23T22:48:57.220Z,23.27
2023-11-23T22:52:01.857Z,21.38
2023-11-23T22:55:08.491Z,24.65
2023-11-23T22:58:10.699Z,23.92
2023-11-23T23:01:13.227Z,21.92
2023-11-23T23:04:15.571Z,24.90
2023-11-23T23:07:21.868Z,25.58
2023-11-23T23:10:29.081Z,24.67
2023-11-23T23:13:33.914Z,22.85
2023-11-23T23:16:36.819Z,22.42
2023-11-23T23:19:39.000Z,26.90
2023-11-23T23:22:41.547Z,26.73
2023-11-23T23:25:45.837Z,25.30
2023-11-23T23:28:48.768Z,26.83
2023-11-23T23:31:51.758Z,24.83
2023-11-23T23:34:54.793Z,28.10
2023-11-23T23:37:57.392Z,28.17
2023-11-23T23:41:00.009Z,25.17
2023-11-23T23:44:05.640Z,30.27
2023-11-23T23:47:09.270Z,28.27
2023-11-23T23:50:13.059Z,30.80
2023-11-23T23:53:15.688Z,28.40
2023-11-23T23:56:18.495Z,26.70
2023-11-23T23:59:20.856Z,28.52
